createdAt,value
2018-09-01T00:02:26.944Z,16.40
2018-09-01T00:04:55.602Z,16.40
2018-09-01T00:07:24.321Z,16.40
2018-09-01T00:09:52.941Z,16.30
2018-09-01T00:12:21.606Z,16.30
2018-09-01T00:14:50.320Z,16.30
2018-09-01T00:17:24.415Z,16.30
2018-09-01T00:19:53.035Z,16.30
2018-09-01T00:22:21.684Z,16.30
2018-09-01T00:24:51.766Z,16.30
2018-09-01T00:27:20.958Z,16.30
2018-09-01T00:29:50.175Z,16.30
2018-09-01T00:32:19.163Z,16.20
2018-09-01T00:34:47.935Z,16.20
2018-09-01T00:37:22.243Z,16.30
2018-09-01T00:39:50.959Z,16.30
2018-09-01T00:42:19.801Z,16.30
2018-09-01T00:44:48.431Z,16.20
2018-09-01T00:47:17.157Z,16.20
2018-09-01T00:49:45.813Z,16.20
2018-09-01T00:52:14.474Z,16.20
2018-09-01T00:54:43.188Z,16.20
2018-09-01T00:57:11.848Z,16.20
2018-09-01T00:59:40.513Z,16.20
2018-09-01T01:02:09.176Z,16.20
2018-09-01T01:04:37.835Z,16.10
2018-09-01T01:07:06.513Z,16.10
2018-09-01T01:09:35.181Z,16.10
2018-09-01T01:12:03.841Z,16.10
2018-09-01T01:14:32.507Z,16.10
2018-09-01T01:17:01.199Z,16.00
2018-09-01T01:19:29.847Z,16.10
2018-09-01T01:21:58.511Z,16.10
2018-09-01T01:24:27.193Z,16.00
2018-09-01T01:26:56.315Z,16.00
2018-09-01T01:29:26.143Z,16.00
2018-09-01T01:31:54.847Z,16.00
2018-09-01T01:34:23.796Z,16.00
2018-09-01T01:36:52.463Z,16.00
2018-09-01T01:39:21.107Z,16.00
2018-09-01T01:41:49.780Z,15.90
2018-09-01T01:44:18.448Z,15.90
2018-09-01T01:46:47.107Z,15.90
2018-09-01T01:49:15.776Z,15.90
2018-09-01T01:51:44.438Z,15.80
2018-09-01T01:54:13.116Z,15.80
2018-09-01T01:56:41.764Z,15.70
2018-09-01T01:59:10.621Z,15.70
2018-09-01T02:01:39.317Z,15.60
2018-09-01T02:04:07.972Z,15.60
2018-09-01T02:06:36.657Z,15.60
2018-09-01T02:09:06.418Z,15.60
2018-09-01T02:11:35.096Z,15.60
2018-09-01T02:14:03.768Z,15.50
2018-09-01T02:16:32.436Z,15.50
2018-09-01T02:19:01.121Z,15.50
2018-09-01T02:21:29.804Z,15.40
2018-09-01T02:23:58.476Z,15.40
2018-09-01T02:26:27.149Z,15.30
2018-09-01T02:28:55.835Z,15.30
2018-09-01T02:31:24.489Z,15.30
2018-09-01T02:33:53.137Z,15.30
2018-09-01T02:36:21.802Z,15.30
2018-09-01T02:38:50.450Z,15.20
2018-09-01T02:41:19.140Z,15.20
2018-09-01T02:43:47.812Z,15.20
2018-09-01T02:46:16.486Z,15.10
2018-09-01T02:48:45.137Z,15.20
2018-09-01T02:51:13.804Z,15.10
2018-09-01T02:53:42.482Z,15.10
2018-09-01T02:56:11.137Z,15.00
2018-09-01T02:58:39.792Z,15.10
2018-09-01T03:01:14.048Z,15.10
2018-09-01T03:03:42.724Z,15.00
2018-09-01T03:06:11.385Z,15.00
2018-09-01T03:08:40.061Z,14.90
2018-09-01T03:11:08.704Z,14.80
2018-09-01T03:13:37.377Z,14.90
2018-09-01T03:16:06.029Z,14.80
2018-09-01T03:18:34.679Z,14.80
2018-09-01T03:21:03.332Z,14.80
2018-09-01T03:23:32.007Z,14.80
2018-09-01T03:26:00.881Z,14.80
2018-09-01T03:28:29.705Z,14.70
2018-09-01T03:30:58.371Z,14.70
2018-09-01T03:33:27.068Z,14.70
2018-09-01T03:35:55.719Z,14.80
2018-09-01T03:38:24.407Z,14.70
2018-09-01T03:40:53.043Z,14.60
2018-09-01T03:43:21.707Z,14.60
2018-09-01T03:45:50.344Z,14.70
2018-09-01T03:48:19.090Z,14.60
2018-09-01T03:50:47.762Z,14.60
2018-09-01T03:53:16.415Z,14.60
2018-09-01T03:55:45.054Z,14.50
2018-09-01T03:58:13.724Z,14.50
2018-09-01T04:00:42.381Z,14.50
2018-09-01T04:03:11.036Z,14.50
2018-09-01T04:05:39.707Z,14.50
2018-09-01T04:08:08.364Z,14.50
2018-09-01T04:10:37.052Z,14.40
2018-09-01T04:13:05.748Z,14.40
2018-09-01T04:15:34.424Z,14.30
2018-09-01T04:18:03.103Z,14.40
2018-09-01T04:20:31.772Z,14.30
2018-09-01T04:23:00.426Z,14.30
2018-09-01T04:25:29.070Z,14.30
2018-09-01T04:27:57.768Z,14.30
2018-09-01T04:30:26.436Z,14.30
2018-09-01T04:32:55.091Z,14.20
2018-09-01T04:35:23.753Z,14.20
2018-09-01T04:37:52.747Z,14.20
2018-09-01T04:40:21.399Z,14.20
2018-09-01T04:42:50.233Z,14.20
2018-09-01T04:45:19.385Z,14.20
2018-09-01T04:47:48.042Z,14.10
2018-09-01T04:50:16.715Z,14.10
2018-09-01T04:52:45.370Z,14.10
2018-09-01T04:55:14.044Z,14.10
2018-09-01T04:57:42.707Z,14.10
2018-09-01T05:00:15.620Z,14.20
2018-09-01T05:02:44.324Z,14.10
2018-09-01T05:05:12.988Z,14.10
2018-09-01T05:07:41.634Z,14.10
2018-09-01T05:10:10.298Z,14.10
2018-09-01T05:12:38.945Z,14.10
2018-09-01T05:15:07.612Z,14.20
2018-09-01T05:17:36.288Z,14.20
2018-09-01T05:20:05.199Z,14.30
2018-09-01T05:22:33.871Z,14.20
2018-09-01T05:25:02.568Z,14.20
2018-09-01T05:27:31.728Z,14.20
2018-09-01T05:30:00.459Z,14.20
2018-09-01T05:32:29.260Z,14.30
2018-09-01T05:34:57.980Z,14.40
2018-09-01T05:37:26.676Z,14.30
2018-09-01T05:39:55.345Z,14.30
2018-09-01T05:42:23.992Z,14.40
2018-09-01T05:44:52.661Z,14.50
2018-09-01T05:47:21.312Z,14.50
2018-09-01T05:49:49.980Z,14.50
2018-09-01T05:52:18.640Z,14.60
2018-09-01T05:54:47.304Z,14.60
2018-09-01T05:57:15.950Z,14.60
2018-09-01T05:59:44.625Z,14.70
2018-09-01T06:02:13.382Z,14.70
2018-09-01T06:04:42.057Z,14.80
2018-09-01T06:07:10.733Z,14.80
2018-09-01T06:09:39.411Z,14.80
2018-09-01T06:12:08.076Z,14.80
2018-09-01T06:14:36.850Z,14.80
2018-09-01T06:17:06.069Z,14.90
2018-09-01T06:19:34.728Z,14.90
2018-09-01T06:22:03.400Z,15.00
2018-09-01T06:24:32.059Z,14.90
2018-09-01T06:27:03.351Z,15.00
2018-09-01T06:29:31.988Z,15.10
2018-09-01T06:32:03.067Z,15.10
2018-09-01T06:34:31.737Z,15.20
2018-09-01T06:37:00.602Z,15.20
2018-09-01T06:39:29.255Z,15.20
2018-09-01T06:41:57.923Z,15.20
2018-09-01T06:44:26.585Z,15.30
2018-09-01T06:46:55.327Z,15.30
2018-09-01T06:49:23.997Z,15.30
2018-09-01T06:51:52.668Z,15.30
2018-09-01T06:54:21.339Z,15.40
2018-09-01T06:56:50.052Z,15.40
2018-09-01T06:59:18.788Z,15.40
2018-09-01T07:01:47.441Z,15.40
2018-09-01T07:04:16.143Z,15.50
2018-09-01T07:06:44.900Z,15.50
2018-09-01T07:09:13.548Z,15.50
2018-09-01T07:11:42.230Z,15.60
2018-09-01T07:14:10.883Z,15.60
2018-09-01T07:16:39.564Z,15.70
2018-09-01T07:19:08.244Z,15.80
2018-09-01T07:21:36.903Z,15.80
2018-09-01T07:24:05.694Z,15.80
2018-09-01T07:26:34.343Z,15.80
2018-09-01T07:29:03.052Z,15.80
2018-09-01T07:31:32.194Z,15.90
2018-09-01T07:34:00.563Z,15.90
2018-09-01T07:36:29.238Z,15.90
2018-09-01T07:38:57.910Z,16.00
2018-09-01T07:41:26.601Z,16.10
2018-09-01T07:43:55.266Z,16.10
2018-09-01T07:46:23.936Z,16.20
2018-09-01T07:48:52.594Z,16.20
2018-09-01T07:51:21.260Z,16.30
2018-09-01T07:53:49.931Z,16.40
2018-09-01T07:56:18.698Z,16.40
2018-09-01T07:58:47.279Z,16.40
2018-09-01T08:01:16.117Z,16.50
2018-09-01T08:03:44.783Z,16.60
2018-09-01T08:06:13.495Z,16.60
2018-09-01T08:08:42.199Z,16.70
2018-09-01T08:11:10.904Z,16.80
2018-09-01T08:13:39.631Z,16.80
2018-09-01T08:16:08.237Z,16.80
2018-09-01T08:18:36.907Z,16.90
2018-09-01T08:21:05.865Z,17.00
2018-09-01T08:23:34.573Z,17.00
2018-09-01T08:26:03.349Z,17.00
2018-09-01T08:28:32.002Z,17.10
2018-09-01T08:31:00.756Z,17.10
2018-09-01T08:33:29.486Z,17.10
2018-09-01T08:35:58.179Z,17.20
2018-09-01T08:38:26.903Z,17.10
2018-09-01T08:40:55.589Z,17.10
2018-09-01T08:43:24.375Z,17.20
2018-09-01T08:45:53.045Z,17.30
2018-09-01T08:48:21.814Z,17.30
2018-09-01T08:50:50.441Z,17.30
2018-09-01T08:53:19.134Z,17.30
2018-09-01T08:55:47.945Z,17.40
2018-09-01T08:58:16.641Z,17.50
2018-09-01T09:00:45.313Z,17.50
2018-09-01T09:03:14.015Z,17.60
2018-09-01T09:05:42.865Z,17.70
2018-09-01T09:08:11.410Z,17.80
2018-09-01T09:10:40.042Z,18.00
2018-09-01T09:13:08.776Z,18.10
2018-09-01T09:15:37.435Z,18.20
2018-09-01T09:18:06.139Z,18.40
2018-09-01T09:20:34.854Z,18.60
2018-09-01T09:23:03.578Z,18.70
2018-09-01T09:25:32.257Z,18.70
2018-09-01T09:28:00.986Z,18.60
2018-09-01T09:30:29.643Z,18.50
2018-09-01T09:32:58.444Z,18.50
2018-09-01T09:35:27.126Z,18.50
2018-09-01T09:37:55.827Z,18.50
2018-09-01T09:40:24.519Z,18.70
2018-09-01T09:42:53.297Z,19.30
2018-09-01T09:45:22.380Z,19.70
2018-09-01T09:47:51.076Z,20.10
2018-09-01T09:50:19.764Z,20.40
2018-09-01T09:52:48.453Z,20.60
2018-09-01T09:55:17.185Z,20.70
2018-09-01T09:57:45.864Z,20.50
2018-09-01T10:00:14.514Z,20.90
2018-09-01T10:02:43.200Z,21.10
2018-09-01T10:05:11.853Z,21.00
2018-09-01T10:07:40.541Z,20.70
2018-09-01T10:10:09.213Z,20.50
2018-09-01T10:12:37.913Z,20.10
2018-09-01T10:15:06.663Z,19.90
2018-09-01T10:17:35.369Z,19.80
2018-09-01T10:20:04.115Z,19.70
2018-09-01T10:22:32.757Z,19.70
2018-09-01T10:25:01.484Z,20.10
2018-09-01T10:27:30.139Z,20.80
2018-09-01T10:29:58.925Z,21.40
2018-09-01T10:32:27.669Z,21.90
2018-09-01T10:34:56.432Z,22.30
2018-09-01T10:37:25.113Z,22.60
2018-09-01T10:39:53.857Z,22.50
2018-09-01T10:42:22.531Z,22.20
2018-09-01T10:44:51.219Z,21.70
2018-09-01T10:47:19.914Z,21.30
2018-09-01T10:49:48.581Z,21.20
2018-09-01T10:52:17.415Z,21.60
2018-09-01T10:54:46.090Z,22.20
2018-09-01T10:57:14.887Z,22.10
2018-09-01T10:59:43.623Z,22.60
2018-09-01T11:02:12.305Z,23.00
2018-09-01T11:04:40.967Z,23.70
2018-09-01T11:07:09.645Z,23.80
2018-09-01T11:09:38.415Z,24.10
2018-09-01T11:12:07.066Z,24.50
2018-09-01T11:14:35.792Z,24.80
2018-09-01T11:17:04.603Z,24.60
2018-09-01T11:19:33.453Z,24.10
2018-09-01T11:22:02.196Z,23.40
2018-09-01T11:24:30.872Z,22.90
2018-09-01T11:26:59.521Z,22.60
2018-09-01T11:29:28.236Z,22.30
2018-09-01T11:31:56.911Z,22.10
2018-09-01T11:34:25.633Z,21.80
2018-09-01T11:36:54.363Z,21.60
2018-09-01T11:39:23.039Z,21.50
2018-09-01T11:41:51.682Z,21.50
2018-09-01T11:44:20.416Z,21.50
2018-09-01T11:46:49.112Z,21.40
2018-09-01T11:49:17.771Z,21.40
2018-09-01T11:51:46.424Z,21.30
2018-09-01T11:54:15.103Z,21.40
2018-09-01T11:56:43.766Z,21.40
2018-09-01T11:59:12.690Z,21.30
2018-09-01T12:01:41.604Z,21.40
2018-09-01T12:04:10.448Z,21.30
2018-09-01T12:06:39.161Z,21.20
2018-09-01T12:09:08.278Z,21.10
2018-09-01T12:11:36.913Z,21.10
2018-09-01T12:14:05.621Z,21.10
2018-09-01T12:16:34.278Z,21.00
2018-09-01T12:19:03.028Z,21.10
2018-09-01T12:21:31.703Z,21.10
2018-09-01T12:24:00.399Z,21.10
2018-09-01T12:26:29.055Z,21.00
2018-09-01T12:28:57.803Z,20.90
2018-09-01T12:31:26.489Z,20.90
2018-09-01T12:33:55.196Z,20.90
2018-09-01T12:36:24.064Z,21.00
2018-09-01T12:38:52.859Z,21.00
2018-09-01T12:41:21.645Z,21.10
2018-09-01T12:43:50.303Z,21.10
2018-09-01T12:46:18.951Z,21.10
2018-09-01T12:48:47.613Z,21.20
2018-09-01T12:51:16.269Z,21.10
2018-09-01T12:53:44.984Z,21.10
2018-09-01T12:56:13.644Z,21.20
2018-09-01T12:58:42.339Z,21.20
2018-09-01T13:01:11.022Z,21.20
2018-09-01T13:03:39.903Z,21.20
2018-09-01T13:06:09.413Z,21.20
2018-09-01T13:08:38.077Z,21.20
2018-09-01T13:11:06.890Z,21.20
2018-09-01T13:13:35.584Z,21.20
2018-09-01T13:16:04.256Z,21.20
2018-09-01T13:18:33.044Z,21.20
2018-09-01T13:21:01.773Z,21.20
2018-09-01T13:23:30.542Z,21.20
2018-09-01T13:25:59.184Z,21.20
2018-09-01T13:28:27.852Z,21.20
2018-09-01T13:30:56.528Z,21.20
2018-09-01T13:33:25.209Z,21.20
2018-09-01T13:35:53.870Z,21.20
2018-09-01T13:38:22.626Z,21.20
2018-09-01T13:40:51.325Z,21.20
2018-09-01T13:43:20.030Z,21.20
2018-09-01T13:45:49.109Z,21.10
2018-09-01T13:48:17.844Z,21.20
2018-09-01T13:50:46.526Z,21.10
2018-09-01T13:53:15.211Z,21.20
2018-09-01T13:55:43.904Z,21.20
2018-09-01T13:58:12.580Z,21.20
2018-09-01T14:00:41.360Z,21.20
2018-09-01T14:03:10.026Z,21.20
2018-09-01T14:05:38.756Z,21.20
2018-09-01T14:08:07.486Z,21.20
2018-09-01T14:10:36.152Z,21.20
2018-09-01T14:13:05.626Z,21.20
2018-09-01T14:15:34.505Z,21.20
2018-09-01T14:18:03.177Z,21.20
2018-09-01T14:20:31.912Z,21.20
2018-09-01T14:23:00.581Z,21.20
2018-09-01T14:25:29.248Z,21.20
2018-09-01T14:27:57.943Z,21.10
2018-09-01T14:30:26.637Z,21.20
2018-09-01T14:32:55.370Z,21.20
2018-09-01T14:35:24.059Z,21.20
2018-09-01T14:37:52.745Z,21.20
2018-09-01T14:40:21.425Z,21.20
2018-09-01T14:42:50.129Z,21.20
2018-09-01T14:45:18.814Z,21.20
2018-09-01T14:47:47.517Z,21.20
2018-09-01T14:50:16.167Z,21.20
2018-09-01T14:52:44.855Z,21.20
2018-09-01T14:55:13.537Z,21.20
2018-09-01T14:57:42.188Z,21.20
2018-09-01T15:00:10.859Z,21.20
2018-09-01T15:02:39.542Z,21.30
2018-09-01T15:05:08.202Z,21.20
2018-09-01T15:07:36.864Z,21.20
2018-09-01T15:10:05.594Z,21.30
2018-09-01T15:12:34.297Z,21.20
2018-09-01T15:15:02.957Z,21.20
2018-09-01T15:17:31.602Z,21.20
2018-09-01T15:20:00.305Z,21.30
2018-09-01T15:22:28.982Z,21.30
2018-09-01T15:24:57.655Z,21.30
2018-09-01T15:27:26.413Z,21.30
2018-09-01T15:29:55.148Z,21.30
2018-09-01T15:32:23.860Z,21.30
2018-09-01T15:34:52.470Z,21.30
2018-09-01T15:37:21.127Z,21.30
2018-09-01T15:39:50.006Z,21.30
2018-09-01T15:42:18.668Z,21.30
2018-09-01T15:44:47.384Z,21.30
2018-09-01T15:47:16.080Z,21.30
2018-09-01T15:49:45.022Z,21.40
2018-09-01T15:52:13.700Z,21.30
2018-09-01T15:54:42.400Z,21.30
2018-09-01T15:57:11.056Z,21.30
2018-09-01T15:59:39.711Z,21.20
2018-09-01T16:02:08.493Z,21.20
2018-09-01T16:04:37.147Z,21.20
2018-09-01T16:07:05.848Z,21.20
2018-09-01T16:09:34.573Z,21.20
2018-09-01T16:12:03.243Z,21.20
2018-09-01T16:14:31.992Z,21.10
2018-09-01T16:17:00.669Z,21.20
2018-09-01T16:19:29.458Z,21.10
2018-09-01T16:21:58.141Z,21.10
2018-09-01T16:24:26.864Z,21.10
2018-09-01T16:26:55.508Z,21.20
2018-09-01T16:29:24.154Z,21.10
2018-09-01T16:31:52.894Z,21.10
2018-09-01T16:34:21.767Z,21.10
2018-09-01T16:36:50.575Z,21.10
2018-09-01T16:39:19.217Z,21.10
2018-09-01T16:41:47.943Z,21.10
2018-09-01T16:44:16.600Z,21.10
2018-09-01T16:46:45.365Z,21.10
2018-09-01T16:49:14.051Z,21.10
2018-09-01T16:51:42.707Z,21.10
2018-09-01T16:54:11.357Z,21.10
2018-09-01T16:56:40.065Z,21.10
2018-09-01T16:59:08.751Z,21.00
2018-09-01T17:01:37.394Z,21.00
2018-09-01T17:04:06.270Z,21.00
2018-09-01T17:06:35.086Z,21.00
2018-09-01T17:09:04.120Z,21.00
2018-09-01T17:11:32.890Z,21.00
2018-09-01T17:14:01.544Z,21.00
2018-09-01T17:16:30.196Z,21.00
2018-09-01T17:18:58.948Z,20.90
2018-09-01T17:21:27.596Z,20.90
2018-09-01T17:23:56.338Z,20.80
2018-09-01T17:26:25.064Z,20.80
2018-09-01T17:28:53.724Z,20.70
2018-09-01T17:31:22.432Z,20.70
2018-09-01T17:33:51.238Z,20.70
2018-09-01T17:39:14.162Z,20.60
2018-09-01T17:41:43.268Z,20.60
2018-09-01T17:44:11.952Z,20.60
2018-09-01T17:46:40.708Z,20.50
2018-09-01T17:49:09.379Z,20.50
2018-09-01T17:51:38.124Z,20.50
2018-09-01T17:54:06.952Z,20.50
2018-09-01T17:56:35.707Z,20.40
2018-09-01T17:59:04.348Z,20.40
2018-09-01T18:01:33.414Z,20.40
2018-09-01T18:04:02.091Z,20.30
2018-09-01T18:06:30.753Z,20.40
2018-09-01T18:08:59.414Z,20.30
2018-09-01T18:11:28.064Z,20.20
2018-09-01T18:13:56.736Z,20.20
2018-09-01T18:16:25.401Z,20.20
2018-09-01T18:18:54.057Z,20.20
2018-09-01T18:21:22.757Z,20.20
2018-09-01T18:23:51.535Z,20.20
2018-09-01T18:26:20.200Z,20.10
2018-09-01T18:28:48.865Z,20.10
2018-09-01T18:31:17.541Z,20.10
2018-09-01T18:33:46.208Z,20.10
2018-09-01T18:36:14.965Z,20.10
2018-09-01T18:38:43.600Z,20.10
2018-09-01T18:41:12.336Z,20.00
2018-09-01T18:43:40.945Z,20.00
2018-09-01T18:46:09.824Z,20.00
2018-09-01T18:48:38.525Z,20.00
2018-09-01T18:51:07.179Z,20.00
2018-09-01T18:53:35.827Z,19.90
2018-09-01T18:56:04.496Z,19.90
2018-09-01T18:58:33.197Z,19.90
2018-09-01T19:01:01.859Z,19.90
2018-09-01T19:03:30.850Z,19.90
2018-09-01T19:05:59.526Z,19.90
2018-09-01T19:08:28.173Z,19.90
2018-09-01T19:10:56.872Z,19.80
2018-09-01T19:13:25.521Z,19.80
2018-09-01T19:15:54.163Z,19.80
2018-09-01T19:18:22.840Z,19.80
2018-09-01T19:20:51.484Z,19.80
2018-09-01T19:23:20.142Z,19.80
2018-09-01T19:25:48.960Z,19.80
2018-09-01T19:28:17.640Z,19.80
2018-09-01T19:30:46.288Z,19.80
2018-09-01T19:33:14.940Z,19.80
2018-09-01T19:35:43.611Z,19.80
2018-09-01T19:38:12.330Z,19.70
2018-09-01T19:40:41.121Z,19.80
2018-09-01T19:43:09.760Z,19.70
2018-09-01T19:45:38.556Z,19.70
2018-09-01T19:48:07.126Z,19.70
2018-09-01T19:50:35.776Z,19.70
2018-09-01T19:53:04.614Z,19.60
2018-09-01T19:55:33.280Z,19.60
2018-09-01T19:58:01.988Z,19.60
2018-09-01T20:00:30.684Z,19.60
2018-09-01T20:02:59.564Z,19.60
2018-09-01T20:05:28.299Z,19.60
2018-09-01T20:07:56.930Z,19.60
2018-09-01T20:10:25.609Z,19.60
2018-09-01T20:12:54.657Z,19.60
2018-09-01T20:15:23.364Z,19.60
2018-09-01T20:17:52.205Z,19.50
2018-09-01T20:20:20.916Z,19.50
2018-09-01T20:22:49.597Z,19.50
2018-09-01T20:25:18.331Z,19.50
2018-09-01T20:27:46.984Z,19.40
2018-09-01T20:30:16.537Z,19.40
2018-09-01T20:32:45.196Z,19.30
2018-09-01T20:35:19.339Z,19.30
2018-09-01T20:37:48.038Z,19.20
2018-09-01T20:40:17.667Z,19.20
2018-09-01T20:42:46.347Z,19.20
2018-09-01T20:45:15.007Z,19.30
2018-09-01T20:47:43.655Z,19.20
2018-09-01T20:50:12.380Z,19.20
2018-09-01T20:52:41.075Z,19.20
2018-09-01T20:55:09.779Z,19.20
2018-09-01T20:57:38.493Z,19.20
2018-09-01T21:00:07.384Z,19.20
2018-09-01T21:02:36.099Z,19.10
2018-09-01T21:05:04.840Z,19.10
2018-09-01T21:07:33.496Z,19.10
2018-09-01T21:10:02.790Z,19.10
2018-09-01T21:12:31.436Z,19.00
2018-09-01T21:15:00.088Z,19.00
2018-09-01T21:17:28.803Z,19.00
2018-09-01T21:19:57.448Z,19.00
2018-09-01T21:22:26.160Z,19.00
2018-09-01T21:24:55.174Z,19.00
2018-09-01T21:27:23.848Z,19.00
2018-09-01T21:29:52.642Z,19.00
2018-09-01T21:32:21.318Z,19.00
2018-09-01T21:34:49.984Z,19.00
2018-09-01T21:37:18.608Z,19.00
2018-09-01T21:39:47.561Z,19.00
2018-09-01T21:42:16.129Z,19.00
2018-09-01T21:44:44.804Z,19.00
2018-09-01T21:47:13.962Z,18.90
2018-09-01T21:49:42.665Z,18.90
2018-09-01T21:52:11.265Z,18.90
2018-09-01T21:54:39.944Z,18.90
2018-09-01T21:57:08.675Z,18.90
2018-09-01T21:59:37.263Z,18.90
2018-09-01T22:02:11.760Z,18.80
2018-09-01T22:04:45.769Z,18.80
2018-09-01T22:07:14.546Z,18.80
2018-09-01T22:09:43.221Z,18.80
2018-09-01T22:12:11.875Z,18.80
2018-09-01T22:14:40.526Z,18.80
2018-09-01T22:17:09.175Z,18.80
2018-09-01T22:19:37.837Z,18.80
2018-09-01T22:22:06.647Z,18.80
2018-09-01T22:24:35.307Z,18.70
2018-09-01T22:27:04.117Z,18.70
2018-09-01T22:29:32.755Z,18.70
2018-09-01T22:32:01.497Z,18.60
2018-09-01T22:34:30.135Z,18.70
2018-09-01T22:36:58.779Z,18.60
2018-09-01T22:39:27.435Z,18.70
2018-09-01T22:41:56.083Z,18.60
2018-09-01T22:44:24.897Z,18.60
2018-09-01T22:46:54.275Z,18.60
2018-09-01T22:49:22.939Z,18.60
2018-09-01T22:51:51.594Z,18.50
2018-09-01T22:54:20.266Z,18.50
2018-09-01T22:56:48.937Z,18.50
2018-09-01T22:59:17.591Z,18.50
2018-09-01T23:01:46.248Z,18.50
2018-09-01T23:04:14.895Z,18.50
2018-09-01T23:06:43.591Z,18.40
2018-09-01T23:09:12.208Z,18.40
2018-09-01T23:11:41.092Z,18.40
2018-09-01T23:14:09.751Z,18.40
2018-09-01T23:16:38.425Z,18.40
2018-09-01T23:19:07.124Z,18.40
2018-09-01T23:21:35.784Z,18.40
2018-09-01T23:24:04.420Z,18.40
2018-09-01T23:26:33.074Z,18.40
2018-09-01T23:29:01.752Z,18.40
2018-09-01T23:31:30.414Z,18.40
2018-09-01T23:33:59.040Z,18.40
2018-09-01T23:36:27.692Z,18.40
2018-09-01T23:38:56.338Z,18.40
2018-09-01T23:41:24.984Z,18.40
2018-09-01T23:43:53.664Z,18.40
2018-09-01T23:46:22.346Z,18.40
2018-09-01T23:48:50.978Z,18.50
2018-09-01T23:51:19.642Z,18.40
2018-09-01T23:53:48.306Z,18.40
2018-09-01T23:56:16.988Z,18.40
2018-09-01T23:58:45.628Z,18.40
